createdAt,value
2022-09-21T00:00:00.171Z,10.18
2022-09-21T00:02:29.474Z,10.17
2022-09-21T00:04:58.404Z,10.18
2022-09-21T00:07:30.162Z,10.19
2022-09-21T00:09:59.422Z,10.20
2022-09-21T00:12:32.024Z,10.26
2022-09-21T00:15:01.481Z,10.28
2022-09-21T00:17:32.610Z,10.29
2022-09-21T00:20:05.502Z,10.24
2022-09-21T00:22:36.559Z,10.24
2022-09-21T00:25:05.937Z,10.30
2022-09-21T00:27:34.700Z,10.33
2022-09-21T00:30:05.273Z,10.34
2022-09-21T00:32:37.345Z,10.35
2022-09-21T00:35:08.183Z,10.39
2022-09-21T00:37:40.033Z,10.40
2022-09-21T00:40:09.277Z,10.39
2022-09-21T00:42:39.055Z,10.38
2022-09-21T00:45:21.552Z,10.38
2022-09-21T00:47:53.409Z,10.42
2022-09-21T00:50:26.649Z,10.43
2022-09-21T00:52:58.492Z,10.42
2022-09-21T00:55:35.223Z,10.41
2022-09-21T00:58:09.627Z,10.40
2022-09-21T01:00:40.646Z,10.44
2022-09-21T01:03:12.461Z,10.45
2022-09-21T01:05:43.580Z,10.45
2022-09-21T01:08:15.604Z,10.50
2022-09-21T01:10:57.892Z,10.53
2022-09-21T01:13:55.965Z,10.54
2022-09-21T01:16:56.464Z,10.58
2022-09-21T01:20:16.230Z,10.67
2022-09-21T01:23:05.315Z,10.77
2022-09-21T01:25:48.969Z,10.83
2022-09-21T01:28:30.682Z,10.88
2022-09-21T01:31:06.554Z,10.97
2022-09-21T01:33:42.942Z,11.05
2022-09-21T01:36:15.742Z,11.10
2022-09-21T01:38:50.432Z,11.09
2022-09-21T01:41:24.941Z,11.11
2022-09-21T01:43:57.923Z,11.14
2022-09-21T01:46:32.909Z,11.19
2022-09-21T01:49:07.324Z,11.18
2022-09-21T01:51:36.818Z,11.20
2022-09-21T01:54:14.704Z,11.23
2022-09-21T01:56:52.256Z,11.25
2022-09-21T01:59:45.896Z,11.23
2022-09-21T02:02:22.642Z,11.18
2022-09-21T02:04:52.268Z,11.13
2022-09-21T02:07:22.330Z,11.19
2022-09-21T02:09:51.246Z,11.23
2022-09-21T02:12:22.378Z,11.21
2022-09-21T02:14:55.922Z,11.18
2022-09-21T02:18:10.147Z,11.16
2022-09-21T02:20:51.126Z,11.21
2022-09-21T02:23:24.414Z,11.22
2022-09-21T02:26:02.474Z,11.26
2022-09-21T02:28:56.653Z,11.28
2022-09-21T02:31:40.556Z,11.22
2022-09-21T02:34:33.869Z,11.14
2022-09-21T02:37:22.652Z,11.08
2022-09-21T02:39:57.123Z,11.00
2022-09-21T02:42:31.756Z,10.97
2022-09-21T02:45:18.630Z,10.95
2022-09-21T02:47:56.990Z,10.92
2022-09-21T02:50:39.496Z,10.93
2022-09-21T02:53:11.789Z,10.95
2022-09-21T02:55:42.497Z,10.92
2022-09-21T02:58:15.095Z,10.93
2022-09-21T03:00:44.778Z,10.94
2022-09-21T03:03:18.914Z,10.96
2022-09-21T03:05:50.720Z,11.02
2022-09-21T03:08:22.775Z,11.03
2022-09-21T03:10:51.649Z,11.03
2022-09-21T03:13:21.470Z,11.09
2022-09-21T03:15:50.424Z,11.10
2022-09-21T03:18:19.273Z,11.11
2022-09-21T03:20:48.098Z,11.12
2022-09-21T03:23:16.940Z,11.15
2022-09-21T03:25:49.337Z,11.16
2022-09-21T03:28:19.228Z,11.13
2022-09-21T03:30:52.691Z,11.04
2022-09-21T03:33:22.536Z,10.97
2022-09-21T03:35:52.734Z,10.97
2022-09-21T03:38:21.989Z,10.96
2022-09-21T03:40:51.171Z,10.93
2022-09-21T03:43:21.496Z,10.87
2022-09-21T03:45:50.394Z,10.81
2022-09-21T03:48:19.322Z,10.78
2022-09-21T03:50:48.490Z,10.79
2022-09-21T03:53:18.094Z,10.80
2022-09-21T03:55:46.967Z,10.83
2022-09-21T03:58:17.306Z,10.84
2022-09-21T04:00:46.748Z,10.84
2022-09-21T04:03:15.672Z,10.87
2022-09-21T04:05:44.716Z,10.93
2022-09-21T04:08:13.794Z,10.93
2022-09-21T04:10:44.519Z,10.97
2022-09-21T04:13:17.003Z,11.01
2022-09-21T04:15:45.911Z,11.02
2022-09-21T04:18:15.466Z,11.01
2022-09-21T04:20:44.906Z,11.02
2022-09-21T04:23:13.911Z,11.01
2022-09-21T04:25:45.316Z,10.99
2022-09-21T04:28:15.319Z,10.95
2022-09-21T04:30:44.661Z,10.94
2022-09-21T04:33:15.835Z,10.95
2022-09-21T04:35:45.252Z,10.99
2022-09-21T04:38:14.406Z,11.08
2022-09-21T04:40:43.729Z,11.19
2022-09-21T04:43:12.643Z,11.23
2022-09-21T04:45:42.815Z,11.26
2022-09-21T04:48:12.337Z,11.27
2022-09-21T04:50:41.984Z,11.31
2022-09-21T04:53:11.453Z,11.34
2022-09-21T04:55:40.958Z,11.34
2022-09-21T04:58:11.430Z,11.33
2022-09-21T05:00:40.555Z,11.41
2022-09-21T05:03:10.220Z,11.43
2022-09-21T05:05:38.926Z,11.47
2022-09-21T05:08:07.955Z,11.59
2022-09-21T05:10:36.939Z,11.66
2022-09-21T05:13:09.671Z,11.66
2022-09-21T05:15:39.908Z,11.66
2022-09-21T05:18:10.356Z,11.61
2022-09-21T05:20:39.238Z,11.68
2022-09-21T05:23:13.602Z,11.78
2022-09-21T05:25:46.602Z,11.89
2022-09-21T05:28:19.276Z,11.98
2022-09-21T05:31:17.929Z,12.00
2022-09-21T05:34:06.865Z,12.03
2022-09-21T05:36:53.899Z,12.10
2022-09-21T05:39:23.443Z,12.18
2022-09-21T05:41:52.716Z,12.27
2022-09-21T05:44:24.546Z,12.30
2022-09-21T05:47:24.676Z,12.38
2022-09-21T05:50:31.399Z,12.49
2022-09-21T05:53:27.926Z,12.68
2022-09-21T05:55:58.535Z,12.88
2022-09-21T05:58:48.886Z,13.02
2022-09-21T06:01:29.960Z,13.14
2022-09-21T06:04:03.818Z,13.23
2022-09-21T06:06:34.987Z,13.30
2022-09-21T06:09:04.480Z,13.39
2022-09-21T06:11:35.056Z,13.43
2022-09-21T06:14:07.578Z,13.38
2022-09-21T06:16:42.629Z,13.37
2022-09-21T06:19:14.038Z,13.47
2022-09-21T06:21:44.775Z,13.62
2022-09-21T06:24:14.180Z,13.68
2022-09-21T06:26:43.880Z,13.66
2022-09-21T06:29:13.401Z,13.62
2022-09-21T06:31:43.540Z,13.64
2022-09-21T06:34:12.831Z,13.65
2022-09-21T06:36:44.657Z,13.74
2022-09-21T06:39:15.737Z,13.70
2022-09-21T06:41:44.911Z,13.66
2022-09-21T06:44:13.689Z,13.71
2022-09-21T06:46:42.729Z,13.72
2022-09-21T06:49:11.893Z,13.70
2022-09-21T06:51:44.247Z,13.63
2022-09-21T06:54:13.200Z,13.62
2022-09-21T06:56:45.338Z,13.60
2022-09-21T06:59:15.619Z,13.56
2022-09-21T07:01:45.630Z,13.66
2022-09-21T07:04:23.127Z,14.06
2022-09-21T07:06:56.859Z,14.48
2022-09-21T07:12:16.673Z,14.50
2022-09-21T07:14:46.030Z,14.40
2022-09-21T07:17:16.223Z,14.30
2022-09-21T07:19:46.111Z,14.35
2022-09-21T07:22:14.823Z,14.51
2022-09-21T07:24:45.405Z,15.01
2022-09-21T07:27:15.444Z,15.47
2022-09-21T07:29:47.883Z,15.79
2022-09-21T07:32:18.202Z,16.06
2022-09-21T07:34:47.822Z,16.28
2022-09-21T07:37:16.687Z,16.31
2022-09-21T07:39:46.392Z,16.22
2022-09-21T07:42:15.373Z,16.10
2022-09-21T07:44:44.953Z,15.96
2022-09-21T07:47:15.615Z,15.87
2022-09-21T07:49:46.973Z,15.86
2022-09-21T07:52:16.388Z,15.82
2022-09-21T07:54:47.723Z,15.82
2022-09-21T07:57:36.999Z,15.99
2022-09-21T08:00:08.470Z,16.05
2022-09-21T08:02:45.132Z,16.02
2022-09-21T08:05:17.181Z,16.08
2022-09-21T08:07:48.837Z,16.10
2022-09-21T08:10:19.251Z,16.07
2022-09-21T08:13:15.776Z,16.19
2022-09-21T08:15:50.213Z,16.60
2022-09-21T08:18:22.044Z,16.94
2022-09-21T08:20:59.617Z,17.12
2022-09-21T08:23:30.872Z,16.93
2022-09-21T08:26:02.386Z,16.67
2022-09-21T08:28:39.427Z,17.42
2022-09-21T08:31:11.867Z,19.25
2022-09-21T08:33:42.226Z,20.20
2022-09-21T08:36:13.572Z,21.32
2022-09-21T08:38:42.827Z,21.34
2022-09-21T08:41:45.475Z,21.95
2022-09-21T08:44:32.846Z,22.06
2022-09-21T08:47:13.326Z,22.38
2022-09-21T08:49:51.658Z,24.09
2022-09-21T08:52:22.417Z,23.65
2022-09-21T08:54:59.390Z,23.60
2022-09-21T08:57:32.161Z,23.39
2022-09-21T09:00:02.591Z,23.35
2022-09-21T09:02:50.724Z,23.13
2022-09-21T09:05:34.771Z,22.84
2022-09-21T09:08:32.094Z,22.42
2022-09-21T09:11:24.508Z,22.06
2022-09-21T09:14:02.502Z,22.55
2022-09-21T09:16:34.435Z,24.25
2022-09-21T09:19:12.967Z,24.94
2022-09-21T09:21:44.296Z,23.78
2022-09-21T09:24:28.192Z,22.45
2022-09-21T09:27:07.897Z,21.32
2022-09-21T09:29:49.519Z,20.35
2022-09-21T09:32:19.147Z,20.09
2022-09-21T09:35:07.761Z,20.12
2022-09-21T09:37:40.881Z,21.30
2022-09-21T09:40:14.987Z,22.92
2022-09-21T09:42:46.733Z,24.62
2022-09-21T09:45:15.452Z,24.76
2022-09-21T09:48:10.744Z,24.42
2022-09-21T09:50:41.254Z,25.94
2022-09-21T09:53:22.852Z,24.93
2022-09-21T09:55:54.818Z,24.39
2022-09-21T09:58:35.692Z,26.09
2022-09-21T10:01:04.712Z,28.14
2022-09-21T10:03:33.577Z,29.81
2022-09-21T10:06:02.751Z,30.70
2022-09-21T10:08:46.860Z,31.30
2022-09-21T10:11:18.382Z,31.90
2022-09-21T10:13:49.672Z,31.65
2022-09-21T10:16:19.193Z,32.12
2022-09-21T10:19:01.904Z,32.93
2022-09-21T10:21:51.353Z,33.76
2022-09-21T10:24:28.758Z,31.16
2022-09-21T10:27:05.859Z,28.19
2022-09-21T10:29:47.413Z,25.88
2022-09-21T10:32:17.217Z,24.21
2022-09-21T10:35:18.436Z,23.08
2022-09-21T10:37:54.754Z,21.99
2022-09-21T10:40:27.525Z,21.42
2022-09-21T10:42:59.306Z,21.50
2022-09-21T10:45:33.257Z,22.44
2022-09-21T10:48:16.967Z,22.76
2022-09-21T10:50:49.897Z,22.70
2022-09-21T10:53:34.719Z,22.28
2022-09-21T10:56:17.743Z,21.78
2022-09-21T10:59:20.107Z,21.04
2022-09-21T11:01:56.128Z,20.24
2022-09-21T11:04:46.788Z,19.72
2022-09-21T11:07:32.583Z,19.38
2022-09-21T11:10:42.743Z,19.28
2022-09-21T11:13:33.855Z,19.28
2022-09-21T11:16:22.910Z,19.49
2022-09-21T11:19:31.534Z,19.93
2022-09-21T11:22:22.085Z,20.93
2022-09-21T11:24:54.496Z,21.67
2022-09-21T11:27:36.709Z,22.38
2022-09-21T11:30:17.634Z,22.97
2022-09-21T11:33:19.476Z,23.94
2022-09-21T11:36:00.480Z,24.69
2022-09-21T11:38:57.783Z,25.11
2022-09-21T11:41:26.621Z,25.49
2022-09-21T11:43:55.998Z,25.70
2022-09-21T11:46:43.778Z,26.13
2022-09-21T11:49:34.821Z,26.54
2022-09-21T11:52:17.423Z,26.73
2022-09-21T11:54:56.968Z,27.05
2022-09-21T11:57:58.936Z,27.21
2022-09-21T12:00:35.091Z,26.94
2022-09-21T12:03:35.888Z,26.39
2022-09-21T12:06:13.767Z,26.48
2022-09-21T12:08:54.842Z,26.82
2022-09-21T12:11:44.901Z,26.29
2022-09-21T12:14:29.631Z,25.60
2022-09-21T12:17:51.172Z,25.87
2022-09-21T12:20:43.131Z,25.55
2022-09-21T12:23:47.510Z,26.05
2022-09-21T12:26:22.771Z,26.40
2022-09-21T12:29:01.187Z,25.86
2022-09-21T12:31:45.626Z,25.69
2022-09-21T12:34:25.407Z,25.50
2022-09-21T12:37:15.689Z,25.52
2022-09-21T12:40:03.386Z,25.31
2022-09-21T12:42:49.199Z,25.29
2022-09-21T12:45:32.623Z,25.30
2022-09-21T12:48:43.024Z,24.47
2022-09-21T12:51:25.082Z,23.35
2022-09-21T12:54:02.783Z,22.91
2022-09-21T12:56:34.704Z,22.39
2022-09-21T12:59:31.756Z,21.96
2022-09-21T13:02:14.567Z,21.50
2022-09-21T13:04:51.179Z,21.10
2022-09-21T13:07:36.706Z,20.81
2022-09-21T13:10:20.022Z,20.71
2022-09-21T13:13:26.902Z,21.07
2022-09-21T13:16:00.402Z,21.31
2022-09-21T13:18:36.755Z,21.68
2022-09-21T13:21:30.400Z,21.70
2022-09-21T13:24:26.892Z,21.25
2022-09-21T13:27:00.404Z,20.75
2022-09-21T13:29:35.845Z,20.01
2022-09-21T13:32:12.673Z,19.23
2022-09-21T13:34:45.747Z,18.59
2022-09-21T13:37:27.845Z,17.97
2022-09-21T13:40:04.390Z,17.51
2022-09-21T13:42:33.327Z,17.23
2022-09-21T13:45:36.358Z,17.07
2022-09-21T13:48:20.749Z,16.98
2022-09-21T13:50:49.692Z,16.95
2022-09-21T13:53:22.951Z,16.92
2022-09-21T13:55:55.252Z,16.95
2022-09-21T13:58:35.245Z,16.99
2022-09-21T14:01:35.822Z,17.06
2022-09-21T14:04:39.444Z,17.03
2022-09-21T14:07:10.279Z,17.09
2022-09-21T14:09:55.353Z,17.13
2022-09-21T14:12:28.700Z,17.14
2022-09-21T14:15:39.882Z,17.11
2022-09-21T14:18:12.106Z,17.04
2022-09-21T14:20:44.117Z,16.96
2022-09-21T14:23:17.004Z,16.88
2022-09-21T14:25:53.781Z,16.79
2022-09-21T14:28:35.714Z,16.71
2022-09-21T14:31:17.930Z,16.68
2022-09-21T14:33:55.285Z,16.73
2022-09-21T14:36:38.392Z,16.92
2022-09-21T14:39:34.848Z,17.09
2022-09-21T14:42:12.803Z,17.09
2022-09-21T14:44:45.128Z,17.05
2022-09-21T14:47:20.694Z,17.12
2022-09-21T14:49:52.617Z,17.04
2022-09-21T14:52:32.372Z,17.00
2022-09-21T14:55:20.600Z,17.23
2022-09-21T14:58:02.378Z,17.46
2022-09-21T15:00:43.194Z,17.66
2022-09-21T15:03:37.367Z,17.52
2022-09-21T15:06:45.951Z,17.22
2022-09-21T15:09:37.266Z,16.78
2022-09-21T15:12:54.174Z,16.38
2022-09-21T15:15:44.623Z,15.97
2022-09-21T15:18:21.333Z,15.72
2022-09-21T15:21:04.913Z,15.53
2022-09-21T15:23:40.475Z,15.46
2022-09-21T15:26:24.417Z,15.41
2022-09-21T15:29:14.902Z,15.36
2022-09-21T15:31:47.721Z,15.34
2022-09-21T15:34:22.281Z,15.27
2022-09-21T15:36:53.417Z,15.21
2022-09-21T15:39:25.130Z,15.17
2022-09-21T15:42:06.907Z,15.12
2022-09-21T15:44:41.225Z,15.11
2022-09-21T15:47:14.197Z,15.12
2022-09-21T15:49:46.570Z,15.13
2022-09-21T15:52:25.718Z,15.11
2022-09-21T15:55:03.299Z,15.09
2022-09-21T15:57:40.980Z,15.08
2022-09-21T16:00:17.462Z,15.15
2022-09-21T16:03:21.777Z,15.17
2022-09-21T16:05:55.845Z,15.11
2022-09-21T16:08:28.088Z,15.08
2022-09-21T16:11:31.112Z,14.98
2022-09-21T16:14:32.980Z,14.85
2022-09-21T16:17:14.660Z,14.70
2022-09-21T16:19:51.476Z,14.60
2022-09-21T16:22:30.179Z,14.50
2022-09-21T16:25:02.434Z,14.42
2022-09-21T16:27:35.107Z,14.30
2022-09-21T16:30:05.163Z,14.21
2022-09-21T16:32:38.301Z,14.14
2022-09-21T16:35:31.960Z,14.07
2022-09-21T16:38:02.967Z,14.02
2022-09-21T16:40:36.365Z,13.98
2022-09-21T16:43:06.492Z,13.92
2022-09-21T16:45:36.080Z,13.83
2022-09-21T16:48:08.382Z,13.75
2022-09-21T16:50:43.584Z,13.67
2022-09-21T16:53:20.156Z,13.59
2022-09-21T16:55:50.596Z,13.52
2022-09-21T16:58:24.081Z,13.48
2022-09-21T17:00:56.450Z,13.43
2022-09-21T17:03:26.165Z,13.38
2022-09-21T17:05:57.701Z,13.31
2022-09-21T17:08:30.614Z,13.27
2022-09-21T17:11:01.829Z,13.19
2022-09-21T17:14:06.370Z,13.13
2022-09-21T17:16:37.198Z,13.03
2022-09-21T17:19:10.768Z,12.94
2022-09-21T17:21:41.729Z,12.86
2022-09-21T17:24:32.748Z,12.77
2022-09-21T17:27:05.022Z,12.66
2022-09-21T17:29:37.632Z,12.60
2022-09-21T17:32:11.406Z,12.54
2022-09-21T17:34:42.835Z,12.47
2022-09-21T17:37:14.862Z,12.42
2022-09-21T17:39:47.679Z,12.38
2022-09-21T17:42:25.294Z,12.31
2022-09-21T17:45:13.965Z,12.27
2022-09-21T17:47:44.495Z,12.23
2022-09-21T17:50:13.193Z,12.20
2022-09-21T17:53:06.956Z,12.19
2022-09-21T17:55:40.244Z,12.18
2022-09-21T17:58:25.915Z,12.15
2022-09-21T18:01:12.092Z,12.11
2022-09-21T18:03:45.101Z,12.07
2022-09-21T18:06:18.715Z,12.05
2022-09-21T18:08:48.038Z,12.02
2022-09-21T18:11:38.965Z,11.97
2022-09-21T18:14:25.519Z,11.93
2022-09-21T18:17:21.687Z,11.90
2022-09-21T18:20:12.931Z,11.84
2022-09-21T18:23:24.018Z,11.75
2022-09-21T18:25:58.888Z,11.72
2022-09-21T18:28:49.496Z,11.71
2022-09-21T18:31:52.886Z,11.66
2022-09-21T18:34:56.463Z,11.58
2022-09-21T18:37:51.557Z,11.50
2022-09-21T18:40:34.344Z,11.39
2022-09-21T18:43:47.791Z,11.29
2022-09-21T18:46:49.479Z,11.26
2022-09-21T18:49:49.038Z,11.24
2022-09-21T18:53:02.761Z,11.22
2022-09-21T18:55:37.133Z,11.16
2022-09-21T18:58:08.987Z,11.11
2022-09-21T19:00:40.150Z,11.07
2022-09-21T19:03:18.498Z,11.03
2022-09-21T19:06:21.581Z,11.02
2022-09-21T19:09:16.391Z,11.02
2022-09-21T19:11:58.856Z,10.96
2022-09-21T19:14:53.918Z,10.92
2022-09-21T19:17:29.758Z,10.89
2022-09-21T19:20:12.158Z,10.86
2022-09-21T19:23:04.740Z,10.82
2022-09-21T19:25:49.887Z,10.75
2022-09-21T19:28:43.558Z,10.70
2022-09-21T19:31:20.726Z,10.64
2022-09-21T19:33:57.725Z,10.60
2022-09-21T19:36:29.867Z,10.57
2022-09-21T19:39:00.250Z,10.55
2022-09-21T19:41:41.163Z,10.54
2022-09-21T19:45:08.057Z,10.50
2022-09-21T19:47:52.767Z,10.47
2022-09-21T19:50:23.168Z,10.45
2022-09-21T19:53:13.491Z,10.42
2022-09-21T19:56:06.003Z,10.41
2022-09-21T19:59:17.880Z,10.39
2022-09-21T20:01:57.252Z,10.37
2022-09-21T20:04:42.906Z,10.33
2022-09-21T20:08:04.662Z,10.30
2022-09-21T20:11:02.548Z,10.25
2022-09-21T20:13:45.794Z,10.21
2022-09-21T20:16:49.985Z,10.19
2022-09-21T20:19:53.472Z,10.15
2022-09-21T20:22:36.095Z,10.10
2022-09-21T20:25:24.027Z,10.06
2022-09-21T20:27:59.507Z,10.02
2022-09-21T20:30:35.096Z,9.97
2022-09-21T20:33:14.185Z,9.92
2022-09-21T20:35:44.304Z,9.93
2022-09-21T20:38:15.295Z,9.92
2022-09-21T20:40:47.515Z,9.92
2022-09-21T20:43:19.111Z,9.91
2022-09-21T20:45:51.381Z,9.88
2022-09-21T20:48:22.058Z,9.88
2022-09-21T20:50:51.501Z,9.87
2022-09-21T20:53:23.148Z,9.87
2022-09-21T20:55:59.531Z,9.86
2022-09-21T20:58:29.740Z,9.86
2022-09-21T21:01:10.428Z,9.81
2022-09-21T21:03:43.972Z,9.71
2022-09-21T21:06:21.736Z,9.61
2022-09-21T21:08:52.077Z,9.53
2022-09-21T21:11:21.934Z,9.41
2022-09-21T21:13:52.199Z,9.39
2022-09-21T21:16:23.016Z,9.38
2022-09-21T21:18:52.923Z,9.35
2022-09-21T21:21:25.506Z,9.29
2022-09-21T21:24:13.101Z,9.19
2022-09-21T21:27:01.182Z,9.11
2022-09-21T21:29:36.410Z,9.05
2022-09-21T21:32:07.832Z,9.02
2022-09-21T21:34:36.844Z,8.94
2022-09-21T21:37:07.998Z,8.86
2022-09-21T21:39:39.659Z,8.71
2022-09-21T21:42:09.602Z,8.66
2022-09-21T21:44:39.147Z,8.66
2022-09-21T21:47:27.834Z,8.61
2022-09-21T21:50:00.955Z,8.61
2022-09-21T21:52:30.956Z,8.64
2022-09-21T21:55:01.451Z,8.67
2022-09-21T21:57:30.234Z,8.69
2022-09-21T22:00:01.217Z,8.70
2022-09-21T22:02:30.124Z,8.71
2022-09-21T22:04:59.592Z,8.72
2022-09-21T22:07:29.625Z,8.72
2022-09-21T22:09:58.450Z,8.69
2022-09-21T22:12:29.394Z,8.61
2022-09-21T22:14:58.958Z,8.56
2022-09-21T22:17:31.102Z,8.54
2022-09-21T22:19:59.950Z,8.51
2022-09-21T22:22:30.979Z,8.49
2022-09-21T22:24:59.995Z,8.46
2022-09-21T22:27:30.499Z,8.42
2022-09-21T22:29:59.917Z,8.36
2022-09-21T22:32:30.369Z,8.30
2022-09-21T22:35:12.123Z,8.26
2022-09-21T22:37:43.964Z,8.20
2022-09-21T22:40:14.596Z,8.14
2022-09-21T22:42:47.535Z,8.08
2022-09-21T22:45:17.695Z,8.04
2022-09-21T22:47:47.661Z,8.00
2022-09-21T22:50:17.304Z,8.01
2022-09-21T22:52:48.223Z,7.95
2022-09-21T22:55:17.279Z,7.84
2022-09-21T22:57:46.137Z,7.79
2022-09-21T23:00:18.837Z,7.85
2022-09-21T23:02:54.318Z,7.93
2022-09-21T23:05:23.946Z,8.01
2022-09-21T23:07:55.205Z,8.03
2022-09-21T23:10:29.339Z,7.98
2022-09-21T23:13:05.042Z,7.92
2022-09-21T23:15:36.998Z,7.89
2022-09-21T23:18:07.685Z,7.89
2022-09-21T23:20:37.750Z,7.94
2022-09-21T23:23:06.742Z,7.99
2022-09-21T23:25:40.488Z,8.02
2022-09-21T23:28:10.322Z,8.02
2022-09-21T23:30:40.906Z,8.05
2022-09-21T23:33:12.318Z,8.10
2022-09-21T23:35:44.881Z,8.09
2022-09-21T23:38:16.167Z,8.09
2022-09-21T23:40:45.255Z,8.12
2022-09-21T23:43:15.619Z,8.14
2022-09-21T23:45:44.504Z,8.15
2022-09-21T23:48:14.813Z,8.18
2022-09-21T23:50:44.919Z,8.18
2022-09-21T23:53:14.521Z,8.10
2022-09-21T23:55:47.378Z,8.09
2022-09-21T23:58:17.266Z,8.11
